createdAt,value
2022-10-15T00:01:11.278Z,5.57
2022-10-15T00:03:16.475Z,5.70
2022-10-15T00:07:26.085Z,6.53
2022-10-15T00:09:31.087Z,5.25
2022-10-15T00:11:35.989Z,5.00
2022-10-15T00:13:44.041Z,4.88
2022-10-15T00:15:48.870Z,5.38
2022-10-15T00:17:53.760Z,5.60
2022-10-15T00:19:58.531Z,6.25
2022-10-15T00:22:03.255Z,7.53
2022-10-15T00:24:09.107Z,4.30
2022-10-15T00:26:15.656Z,4.03
2022-10-15T00:28:21.023Z,4.82
2022-10-15T00:30:29.531Z,4.68
2022-10-15T00:32:34.866Z,4.25
2022-10-15T00:34:43.406Z,4.85
2022-10-15T00:36:48.330Z,4.07
2022-10-15T00:38:54.037Z,4.13
2022-10-15T00:40:59.102Z,3.47
2022-10-15T00:45:14.073Z,4.15
2022-10-15T00:47:27.912Z,4.50
2022-10-15T00:49:36.692Z,3.88
2022-10-15T00:51:45.819Z,5.90
2022-10-15T00:53:52.810Z,5.20
2022-10-15T00:55:57.878Z,4.22
2022-10-15T00:58:05.906Z,4.55
2022-10-15T01:00:16.055Z,3.50
2022-10-15T01:02:24.498Z,6.38
2022-10-15T01:04:30.943Z,4.72
2022-10-15T01:06:35.827Z,4.80
2022-10-15T01:08:40.863Z,3.95
2022-10-15T01:10:56.923Z,3.45
2022-10-15T01:13:12.375Z,4.05
2022-10-15T01:15:25.527Z,3.75
2022-10-15T01:17:41.000Z,2.90
2022-10-15T01:20:06.669Z,6.00
2022-10-15T01:22:24.247Z,3.35
2022-10-15T01:24:52.948Z,6.05
2022-10-15T01:27:22.765Z,3.83
2022-10-15T01:29:41.050Z,3.50
2022-10-15T01:31:58.708Z,4.85
2022-10-15T01:34:07.230Z,3.05
2022-10-15T01:36:19.124Z,2.85
2022-10-15T01:38:39.177Z,4.43
2022-10-15T01:40:51.545Z,3.05
2022-10-15T01:43:00.557Z,3.35
2022-10-15T01:45:21.337Z,4.40
2022-10-15T01:47:49.185Z,1.95
2022-10-15T01:49:58.038Z,2.17
2022-10-15T01:52:09.446Z,2.65
2022-10-15T01:54:18.624Z,2.22
2022-10-15T01:56:26.134Z,4.25
2022-10-15T01:58:33.169Z,3.25
2022-10-15T02:00:38.164Z,2.50
2022-10-15T02:02:45.744Z,3.08
2022-10-15T02:04:50.517Z,2.60
2022-10-15T02:07:07.195Z,2.15
2022-10-15T02:09:22.868Z,2.10
2022-10-15T02:13:43.580Z,2.55
2022-10-15T02:15:55.711Z,2.15
2022-10-15T02:18:08.058Z,2.30
2022-10-15T02:20:18.179Z,2.20
2022-10-15T02:22:27.689Z,3.95
2022-10-15T02:24:40.622Z,1.88
2022-10-15T02:26:46.224Z,2.05
2022-10-15T02:28:57.436Z,3.92
2022-10-15T02:31:04.701Z,2.25
2022-10-15T02:33:12.990Z,2.92
2022-10-15T02:35:18.238Z,1.58
2022-10-15T02:37:27.071Z,1.75
2022-10-15T02:39:32.188Z,1.67
2022-10-15T02:41:38.239Z,2.75
2022-10-15T02:43:44.631Z,2.45
2022-10-15T02:45:50.356Z,1.85
2022-10-15T02:47:57.455Z,1.33
2022-10-15T02:52:09.899Z,2.20
2022-10-15T02:54:14.797Z,1.35
2022-10-15T02:56:19.608Z,2.65
2022-10-15T02:58:26.012Z,3.30
2022-10-15T03:00:31.463Z,1.92
2022-10-15T03:02:36.257Z,1.80
2022-10-15T03:04:42.038Z,1.65
2022-10-15T03:08:54.059Z,1.35
2022-10-15T03:11:02.544Z,4.15
2022-10-15T03:13:08.710Z,0.95
2022-10-15T03:15:22.214Z,2.92
2022-10-15T03:17:27.127Z,1.35
2022-10-15T03:19:31.942Z,1.65
2022-10-15T03:21:36.794Z,1.23
2022-10-15T03:23:50.334Z,0.77
2022-10-15T03:25:59.614Z,1.15
2022-10-15T03:28:04.376Z,0.85
2022-10-15T03:30:18.418Z,1.00
2022-10-15T03:32:23.855Z,0.57
2022-10-15T03:36:33.495Z,1.13
2022-10-15T03:38:39.198Z,0.88
2022-10-15T03:40:51.323Z,0.90
2022-10-15T03:43:16.882Z,0.82
2022-10-15T03:45:22.308Z,0.70
2022-10-15T03:47:34.575Z,2.15
2022-10-15T03:49:39.297Z,1.52
2022-10-15T03:51:44.894Z,0.60
2022-10-15T03:53:55.872Z,1.02
2022-10-15T03:56:09.640Z,2.83
2022-10-15T03:58:17.037Z,1.23
2022-10-15T04:00:29.879Z,0.60
2022-10-15T04:02:38.178Z,1.13
2022-10-15T04:04:47.910Z,1.38
2022-10-15T04:19:11.509Z,0.60
2022-10-15T04:34:49.972Z,1.40
2022-10-15T04:37:02.589Z,0.73
2022-10-15T04:41:25.825Z,2.88
2022-10-15T04:43:42.958Z,1.45
2022-10-15T04:45:49.577Z,1.98
2022-10-15T04:47:57.218Z,0.90
2022-10-15T04:50:06.571Z,1.63
2022-10-15T04:52:31.253Z,1.60
2022-10-15T04:54:42.205Z,1.10
2022-10-15T04:56:46.914Z,1.10
2022-10-15T04:58:53.201Z,1.73
2022-10-15T05:01:02.680Z,1.88
2022-10-15T05:03:18.132Z,0.82
2022-10-15T05:05:33.719Z,1.40
2022-10-15T05:07:41.392Z,0.90
2022-10-15T05:09:46.981Z,0.65
2022-10-15T05:11:52.362Z,2.25
2022-10-15T05:13:59.109Z,0.82
2022-10-15T05:16:12.745Z,0.80
2022-10-15T05:18:17.547Z,2.97
2022-10-15T05:20:28.813Z,2.70
2022-10-15T05:22:36.246Z,3.72
2022-10-15T05:24:41.348Z,1.90
2022-10-15T05:26:55.353Z,1.63
2022-10-15T05:29:02.998Z,1.75
2022-10-15T05:31:13.713Z,1.55
2022-10-15T05:33:22.487Z,1.38
2022-10-15T05:35:27.515Z,1.50
2022-10-15T05:37:39.714Z,1.92
2022-10-15T05:39:44.499Z,1.20
2022-10-15T05:41:49.833Z,1.50
2022-10-15T05:43:56.155Z,1.05
2022-10-15T05:46:03.871Z,2.13
2022-10-15T05:48:09.468Z,1.85
2022-10-15T05:50:14.343Z,3.30
2022-10-15T05:52:23.559Z,3.42
2022-10-15T05:54:51.573Z,2.90
2022-10-15T05:56:56.293Z,2.60
2022-10-15T05:59:01.150Z,3.67
2022-10-15T06:01:08.498Z,2.38
2022-10-15T06:03:17.020Z,2.05
2022-10-15T06:05:21.827Z,1.88
2022-10-15T06:07:26.857Z,1.70
2022-10-15T06:09:31.587Z,1.30
2022-10-15T06:11:39.420Z,2.03
2022-10-15T06:13:47.230Z,1.65
2022-10-15T06:15:52.028Z,1.23
2022-10-15T06:17:56.962Z,1.02
2022-10-15T06:20:01.778Z,1.63
2022-10-15T06:22:06.535Z,1.65
2022-10-15T06:24:11.692Z,1.15
2022-10-15T06:28:28.642Z,1.25
2022-10-15T06:30:33.509Z,1.85
2022-10-15T06:32:38.299Z,1.33
2022-10-15T06:34:43.101Z,0.95
2022-10-15T06:36:47.969Z,1.23
2022-10-15T06:38:52.922Z,3.75
2022-10-15T06:40:57.703Z,3.38
2022-10-15T06:43:10.774Z,2.25
2022-10-15T06:45:21.013Z,2.70
2022-10-15T06:47:29.256Z,1.92
2022-10-15T06:49:34.170Z,2.53
2022-10-15T06:51:40.044Z,2.20
2022-10-15T06:53:46.338Z,3.60
2022-10-15T06:55:51.148Z,2.90
2022-10-15T06:57:55.965Z,3.35
2022-10-15T07:00:04.152Z,4.57
2022-10-15T07:02:14.190Z,5.55
2022-10-15T07:04:18.962Z,4.80
2022-10-15T07:06:23.734Z,4.50
2022-10-15T07:08:28.597Z,10.20
2022-10-15T07:10:33.410Z,11.40
2022-10-15T07:12:38.227Z,10.05
2022-10-15T07:14:43.016Z,7.55
2022-10-15T07:16:47.769Z,5.57
2022-10-15T07:18:55.125Z,5.28
2022-10-15T07:21:00.131Z,4.40
2022-10-15T07:23:05.622Z,6.30
2022-10-15T07:25:12.790Z,6.03
2022-10-15T07:27:19.080Z,6.22
2022-10-15T07:29:24.107Z,5.93
2022-10-15T07:31:28.970Z,3.58
2022-10-15T07:33:34.485Z,3.25
2022-10-15T07:35:42.596Z,3.83
2022-10-15T07:37:47.678Z,3.38
2022-10-15T07:41:56.948Z,2.60
2022-10-15T07:44:01.760Z,1.40
2022-10-15T07:46:07.295Z,3.17
2022-10-15T07:48:12.080Z,2.38
2022-10-15T07:50:17.037Z,2.58
2022-10-15T07:52:25.926Z,3.38
2022-10-15T07:54:30.874Z,1.98
2022-10-15T07:56:35.703Z,1.83
2022-10-15T07:58:41.392Z,3.10
2022-10-15T08:00:46.336Z,4.47
2022-10-15T08:02:51.140Z,2.60
2022-10-15T08:04:58.147Z,5.85
2022-10-15T08:07:05.710Z,5.00
2022-10-15T08:09:15.418Z,2.90
2022-10-15T08:11:20.247Z,2.75
2022-10-15T08:13:25.109Z,1.77
2022-10-15T08:15:32.769Z,15.60
2022-10-15T08:17:37.635Z,8.38
2022-10-15T08:19:42.394Z,5.10
2022-10-15T08:21:47.715Z,4.07
2022-10-15T08:23:52.507Z,2.97
2022-10-15T08:26:07.235Z,3.47
2022-10-15T08:28:12.296Z,2.72
2022-10-15T08:32:21.916Z,2.83
2022-10-15T08:34:27.117Z,6.78
2022-10-15T08:36:31.978Z,1.75
2022-10-15T08:38:37.497Z,1.90
2022-10-15T08:40:46.948Z,2.28
2022-10-15T08:42:54.484Z,1.77
2022-10-15T08:45:03.944Z,1.75
2022-10-15T08:47:16.447Z,1.73
2022-10-15T08:49:33.387Z,3.47
2022-10-15T08:51:44.526Z,4.38
2022-10-15T08:53:52.789Z,1.40
2022-10-15T08:55:59.761Z,9.45
2022-10-15T08:58:16.110Z,15.38
2022-10-15T09:00:23.965Z,10.60
2022-10-15T09:02:36.541Z,1.58
2022-10-15T09:04:49.773Z,16.33
2022-10-15T09:07:00.351Z,23.13
2022-10-15T09:09:15.955Z,22.60
2022-10-15T09:15:50.374Z,3.92
2022-10-15T09:17:57.088Z,6.03
2022-10-15T09:20:08.089Z,11.32
2022-10-15T09:22:17.847Z,2.65
2022-10-15T09:24:26.107Z,2.88
2022-10-15T09:26:35.829Z,5.88
2022-10-15T09:28:47.655Z,2.55
2022-10-15T09:30:58.325Z,3.58
2022-10-15T09:33:09.652Z,2.28
2022-10-15T09:35:22.848Z,1.73
2022-10-15T09:37:33.638Z,1.33
2022-10-15T09:39:53.718Z,2.85
2022-10-15T09:42:10.440Z,1.17
2022-10-15T09:44:21.122Z,1.45
2022-10-15T09:46:27.496Z,1.05
2022-10-15T09:48:39.080Z,1.17
2022-10-15T09:50:49.492Z,0.80
2022-10-15T09:53:13.166Z,1.27
2022-10-15T09:55:33.186Z,5.93
2022-10-15T09:57:40.487Z,3.38
2022-10-15T10:00:01.209Z,1.85
2022-10-15T10:02:08.210Z,3.75
2022-10-15T10:04:16.485Z,3.03
2022-10-15T10:06:21.906Z,1.20
2022-10-15T10:08:28.671Z,1.30
2022-10-15T10:10:33.573Z,2.78
2022-10-15T10:12:39.867Z,1.02
2022-10-15T10:14:49.798Z,2.53
2022-10-15T10:17:22.107Z,1.70
2022-10-15T10:19:27.039Z,2.70
2022-10-15T10:21:36.538Z,2.25
2022-10-15T10:23:42.118Z,2.65
2022-10-15T10:25:46.973Z,0.95
2022-10-15T10:27:51.876Z,4.93
2022-10-15T10:29:59.759Z,1.80
2022-10-15T10:32:20.061Z,1.70
2022-10-15T10:34:30.036Z,1.33
2022-10-15T10:36:40.675Z,1.10
2022-10-15T10:38:58.806Z,1.20
2022-10-15T10:41:08.580Z,1.75
2022-10-15T10:43:20.271Z,1.13
2022-10-15T10:45:30.006Z,1.48
2022-10-15T10:47:39.583Z,0.75
2022-10-15T10:49:49.261Z,0.98
2022-10-15T10:51:54.117Z,0.82
2022-10-15T10:54:01.866Z,1.08
2022-10-15T10:56:13.627Z,0.90
2022-10-15T10:58:26.310Z,1.58
2022-10-15T11:00:41.500Z,1.17
2022-10-15T11:02:49.259Z,0.85
2022-10-15T11:04:54.039Z,0.75
2022-10-15T11:07:06.410Z,1.50
2022-10-15T11:09:30.203Z,0.50
2022-10-15T11:11:44.153Z,1.77
2022-10-15T11:14:01.154Z,3.45
2022-10-15T11:16:14.551Z,1.80
2022-10-15T11:18:37.379Z,0.68
2022-10-15T11:20:58.776Z,1.17
2022-10-15T11:23:22.586Z,1.70
2022-10-15T11:25:41.554Z,4.00
2022-10-15T11:27:59.066Z,4.53
2022-10-15T11:30:08.443Z,3.50
2022-10-15T11:32:26.189Z,4.80
2022-10-15T11:34:52.118Z,6.78
2022-10-15T11:37:09.709Z,16.35
2022-10-15T11:39:46.909Z,9.18
2022-10-15T11:42:04.227Z,12.00
2022-10-15T11:44:35.417Z,8.52
2022-10-15T11:46:52.173Z,8.27
2022-10-15T11:49:10.769Z,14.50
2022-10-15T11:51:28.517Z,10.82
2022-10-15T11:53:53.804Z,8.80
2022-10-15T11:56:07.251Z,13.03
2022-10-15T11:58:19.716Z,12.60
2022-10-15T12:00:35.397Z,5.30
2022-10-15T12:04:49.505Z,12.10
2022-10-15T12:06:59.941Z,9.38
2022-10-15T12:09:07.065Z,11.73
2022-10-15T12:11:25.930Z,10.30
2022-10-15T12:13:39.271Z,14.02
2022-10-15T12:15:52.783Z,21.52
2022-10-15T12:18:04.577Z,23.95
2022-10-15T12:20:15.080Z,23.50
2022-10-15T12:22:35.946Z,22.63
2022-10-15T12:24:56.690Z,70.97
2022-10-15T12:27:18.116Z,26.75
2022-10-15T12:29:24.734Z,28.10
2022-10-15T12:31:46.979Z,33.55
2022-10-15T12:33:53.826Z,38.70
2022-10-15T12:36:00.775Z,14.00
2022-10-15T12:38:24.493Z,12.70
2022-10-15T12:42:40.279Z,5.93
2022-10-15T12:44:52.214Z,7.32
2022-10-15T12:46:57.375Z,8.07
2022-10-15T12:49:04.145Z,8.88
2022-10-15T12:51:35.354Z,9.68
2022-10-15T12:53:45.139Z,19.10
2022-10-15T12:56:15.246Z,32.50
2022-10-15T12:58:36.705Z,10.15
2022-10-15T13:00:50.644Z,5.78
2022-10-15T13:02:59.329Z,10.65
2022-10-15T13:05:04.237Z,8.50
2022-10-15T13:07:09.175Z,6.82
2022-10-15T13:09:31.903Z,24.30
2022-10-15T13:11:41.117Z,11.20
2022-10-15T13:13:47.588Z,8.23
2022-10-15T13:16:02.094Z,27.00
2022-10-15T13:18:13.758Z,9.02
2022-10-15T13:20:34.245Z,13.32
2022-10-15T13:22:40.318Z,12.32
2022-10-15T13:26:54.133Z,8.05
2022-10-15T13:29:00.779Z,7.78
2022-10-15T13:31:08.345Z,5.13
2022-10-15T13:33:13.313Z,19.98
2022-10-15T13:35:22.329Z,20.50
2022-10-15T13:37:33.783Z,7.72
2022-10-15T13:39:40.345Z,8.73
2022-10-15T13:41:47.811Z,7.22
2022-10-15T13:43:59.194Z,6.80
2022-10-15T13:46:04.385Z,4.85
2022-10-15T13:48:14.735Z,5.38
2022-10-15T13:50:25.907Z,3.72
2022-10-15T13:52:30.697Z,2.85
2022-10-15T13:54:36.297Z,5.70
2022-10-15T13:56:53.335Z,10.02
2022-10-15T13:58:59.353Z,7.03
2022-10-15T14:01:10.770Z,10.45
2022-10-15T14:03:24.731Z,6.22
2022-10-15T14:05:31.027Z,8.23
2022-10-15T14:07:35.858Z,5.95
2022-10-15T14:09:42.827Z,7.15
2022-10-15T14:11:50.307Z,3.45
2022-10-15T14:13:57.519Z,3.10
2022-10-15T14:16:15.020Z,3.53
2022-10-15T14:18:30.030Z,3.53
2022-10-15T14:20:35.049Z,2.53
2022-10-15T14:22:39.823Z,1.60
2022-10-15T14:24:44.664Z,4.40
2022-10-15T14:26:52.651Z,21.98
2022-10-15T14:28:57.635Z,20.23
2022-10-15T14:33:08.267Z,6.35
2022-10-15T14:35:27.261Z,4.57
2022-10-15T14:37:43.026Z,2.88
2022-10-15T14:39:50.809Z,1.55
2022-10-15T14:42:05.583Z,1.38
2022-10-15T14:44:21.220Z,1.73
2022-10-15T14:48:35.198Z,4.25
2022-10-15T14:50:44.759Z,2.80
2022-10-15T14:52:52.848Z,1.30
2022-10-15T14:55:08.176Z,2.13
2022-10-15T14:57:25.266Z,1.20
2022-10-15T14:59:36.203Z,1.00
2022-10-15T15:01:42.304Z,1.40
2022-10-15T15:03:52.401Z,1.10
2022-10-15T15:05:58.647Z,2.67
2022-10-15T15:08:05.804Z,2.65
2022-10-15T15:10:12.517Z,2.35
2022-10-15T15:12:25.654Z,1.55
2022-10-15T15:14:32.512Z,1.15
2022-10-15T15:16:37.346Z,1.10
2022-10-15T15:18:43.906Z,2.13
2022-10-15T15:20:50.172Z,1.45
2022-10-15T15:22:57.410Z,1.70
2022-10-15T15:25:04.728Z,1.20
2022-10-15T15:27:09.607Z,1.90
2022-10-15T15:29:17.736Z,1.10
2022-10-15T15:31:24.154Z,2.25
2022-10-15T15:33:30.610Z,2.85
2022-10-15T15:35:44.275Z,1.55
2022-10-15T15:37:50.107Z,1.75
2022-10-15T15:39:56.428Z,1.42
2022-10-15T15:42:02.727Z,1.10
2022-10-15T15:44:07.849Z,2.75
2022-10-15T15:48:20.032Z,1.60
2022-10-15T15:50:24.836Z,1.40
2022-10-15T15:52:32.620Z,2.47
2022-10-15T15:54:41.109Z,4.57
2022-10-15T15:56:45.835Z,1.83
2022-10-15T15:58:50.626Z,2.28
2022-10-15T16:00:55.519Z,1.63
2022-10-15T16:03:03.070Z,1.73
2022-10-15T16:05:10.592Z,1.50
2022-10-15T16:07:18.996Z,2.25
2022-10-15T16:09:24.885Z,11.27
2022-10-15T16:11:32.396Z,7.43
2022-10-15T16:13:37.430Z,6.38
2022-10-15T16:15:42.209Z,6.03
2022-10-15T16:17:47.049Z,2.55
2022-10-15T16:19:54.513Z,3.92
2022-10-15T16:21:59.405Z,9.10
2022-10-15T16:24:04.506Z,17.10
2022-10-15T16:26:09.316Z,29.00
2022-10-15T16:28:14.306Z,18.30
2022-10-15T16:30:19.435Z,27.13
2022-10-15T16:34:31.952Z,17.27
2022-10-15T16:36:39.367Z,21.70
2022-10-15T16:38:45.730Z,15.52
2022-10-15T16:40:50.560Z,27.45
2022-10-15T16:42:55.352Z,10.35
2022-10-15T16:45:00.160Z,7.55
2022-10-15T16:47:04.973Z,6.25
2022-10-15T16:49:09.847Z,8.20
2022-10-15T16:51:16.792Z,6.70
2022-10-15T16:53:24.319Z,4.65
2022-10-15T16:55:29.975Z,5.95
2022-10-15T16:57:34.783Z,6.28
2022-10-15T16:59:39.547Z,5.82
2022-10-15T17:01:44.489Z,8.30
2022-10-15T17:03:49.360Z,12.25
2022-10-15T17:05:59.174Z,9.15
2022-10-15T17:08:03.936Z,6.93
2022-10-15T17:10:14.762Z,3.35
2022-10-15T17:12:19.890Z,2.88
2022-10-15T17:14:24.651Z,5.43
2022-10-15T17:16:31.887Z,4.75
2022-10-15T17:18:36.753Z,3.85
2022-10-15T17:20:46.862Z,3.53
2022-10-15T17:22:51.859Z,4.70
2022-10-15T17:24:56.637Z,2.45
2022-10-15T17:27:04.070Z,2.53
2022-10-15T17:29:13.377Z,2.50
2022-10-15T17:31:21.299Z,2.55
2022-10-15T17:33:26.068Z,2.17
2022-10-15T17:35:31.646Z,2.13
2022-10-15T17:37:37.456Z,2.38
2022-10-15T17:39:42.338Z,1.95
2022-10-15T17:41:47.380Z,2.72
2022-10-15T17:43:56.126Z,2.53
2022-10-15T17:46:04.185Z,4.55
2022-10-15T17:48:09.232Z,3.80
2022-10-15T17:50:14.627Z,2.50
2022-10-15T17:52:19.827Z,3.35
2022-10-15T17:54:24.575Z,4.45
2022-10-15T17:56:32.348Z,3.78
2022-10-15T17:58:37.138Z,4.10
2022-10-15T18:00:44.590Z,3.05
2022-10-15T18:02:51.547Z,2.83
2022-10-15T18:04:56.334Z,1.92
2022-10-15T18:07:01.051Z,2.63
2022-10-15T18:09:06.543Z,3.08
2022-10-15T18:11:11.995Z,3.78
2022-10-15T18:13:16.816Z,3.92
2022-10-15T18:15:22.699Z,2.20
2022-10-15T18:17:32.506Z,2.85
2022-10-15T18:19:37.295Z,3.60
2022-10-15T18:21:46.910Z,3.60
2022-10-15T18:23:56.593Z,2.35
2022-10-15T18:26:05.207Z,3.22
2022-10-15T18:28:11.783Z,3.17
2022-10-15T18:30:17.221Z,2.03
2022-10-15T18:32:22.027Z,1.92
2022-10-15T18:34:33.390Z,2.95
2022-10-15T18:36:41.599Z,3.05
2022-10-15T18:38:47.070Z,3.13
2022-10-15T18:40:51.855Z,4.90
2022-10-15T18:42:58.272Z,6.32
2022-10-15T18:45:03.123Z,5.32
2022-10-15T18:47:07.943Z,2.95
2022-10-15T18:49:22.674Z,4.38
2022-10-15T18:51:32.358Z,4.00
2022-10-15T18:53:37.575Z,3.60
2022-10-15T18:55:42.397Z,3.63
2022-10-15T18:57:47.311Z,3.65
2022-10-15T19:01:57.937Z,3.72
2022-10-15T19:04:04.711Z,3.15
2022-10-15T19:06:09.647Z,3.95
2022-10-15T19:08:20.707Z,3.85
2022-10-15T19:10:28.198Z,4.20
2022-10-15T19:12:32.959Z,4.18
2022-10-15T19:14:37.854Z,4.68
2022-10-15T19:16:46.001Z,5.38
2022-10-15T19:18:50.807Z,4.18
2022-10-15T19:20:55.740Z,3.92
2022-10-15T19:23:00.709Z,3.53
2022-10-15T19:25:09.487Z,4.22
2022-10-15T19:27:14.441Z,3.33
2022-10-15T19:29:19.702Z,3.50
2022-10-15T19:31:28.069Z,4.43
2022-10-15T19:33:34.440Z,3.00
2022-10-15T19:35:43.332Z,3.58
2022-10-15T19:37:48.119Z,3.10
2022-10-15T19:39:53.128Z,6.05
2022-10-15T19:42:02.295Z,3.30
2022-10-15T19:44:08.487Z,5.32
2022-10-15T19:46:13.774Z,3.75
2022-10-15T19:48:23.049Z,4.82
2022-10-15T19:50:27.823Z,4.05
2022-10-15T19:52:36.295Z,4.78
2022-10-15T19:54:41.381Z,3.65
2022-10-15T19:56:46.241Z,3.88
2022-10-15T19:58:57.967Z,5.60
2022-10-15T20:01:02.886Z,6.13
2022-10-15T20:03:09.444Z,4.25
2022-10-15T20:05:14.280Z,4.75
2022-10-15T20:07:19.303Z,4.95
2022-10-15T20:09:24.232Z,3.45
2022-10-15T20:11:31.727Z,3.22
2022-10-15T20:13:37.241Z,3.20
2022-10-15T20:15:47.746Z,5.28
2022-10-15T20:17:52.538Z,5.50
2022-10-15T20:19:57.422Z,4.22
2022-10-15T20:22:02.319Z,4.95
2022-10-15T20:24:07.456Z,3.30
2022-10-15T20:26:14.493Z,3.63
2022-10-15T20:28:20.298Z,3.58
2022-10-15T20:30:27.038Z,5.80
2022-10-15T20:32:35.878Z,4.45
2022-10-15T20:34:40.841Z,2.80
2022-10-15T20:36:45.710Z,2.05
2022-10-15T20:38:50.488Z,4.70
2022-10-15T20:40:55.308Z,4.85
2022-10-15T20:43:00.223Z,3.30
2022-10-15T20:45:06.578Z,3.35
2022-10-15T20:47:16.906Z,4.40
2022-10-15T20:49:28.914Z,3.60
2022-10-15T20:51:34.413Z,3.65
2022-10-15T20:53:39.429Z,3.53
2022-10-15T20:55:44.327Z,3.08
2022-10-15T20:57:49.312Z,3.50
2022-10-15T20:59:54.158Z,3.17
2022-10-15T21:01:59.117Z,1.90
2022-10-15T21:04:04.047Z,4.32
2022-10-15T21:06:11.550Z,3.88
2022-10-15T21:08:16.476Z,4.35
2022-10-15T21:10:21.282Z,5.82
2022-10-15T21:12:26.339Z,2.60
2022-10-15T21:14:31.349Z,2.53
2022-10-15T21:16:36.109Z,2.15
2022-10-15T21:18:41.254Z,2.70
2022-10-15T21:20:45.991Z,4.18
2022-10-15T21:22:53.390Z,3.25
2022-10-15T21:24:58.176Z,5.57
2022-10-15T21:27:03.085Z,2.88
2022-10-15T21:29:11.468Z,2.83
2022-10-15T21:31:18.417Z,4.50
2022-10-15T21:33:23.192Z,3.17
2022-10-15T21:35:28.007Z,3.70
2022-10-15T21:37:36.247Z,2.20
2022-10-15T21:39:43.588Z,3.85
2022-10-15T21:41:48.409Z,4.72
2022-10-15T21:43:53.301Z,2.22
2022-10-15T21:46:01.870Z,1.85
2022-10-15T21:48:07.070Z,3.20
2022-10-15T21:50:12.375Z,3.45
2022-10-15T21:52:17.213Z,3.70
2022-10-15T21:54:22.429Z,1.83
2022-10-15T21:56:32.942Z,3.53
2022-10-15T21:58:38.867Z,3.63
2022-10-15T22:00:44.138Z,2.20
2022-10-15T22:02:52.383Z,2.72
2022-10-15T22:04:57.153Z,3.53
2022-10-15T22:07:01.898Z,1.90
2022-10-15T22:09:07.313Z,2.78
2022-10-15T22:11:13.920Z,3.55
2022-10-15T22:13:21.342Z,2.85
2022-10-15T22:15:26.142Z,4.30
2022-10-15T22:17:30.973Z,3.58
2022-10-15T22:19:36.330Z,4.55
2022-10-15T22:21:41.886Z,4.30
2022-10-15T22:23:46.799Z,2.65
2022-10-15T22:26:00.179Z,3.45
2022-10-15T22:28:05.047Z,2.45
2022-10-15T22:30:13.218Z,4.57
2022-10-15T22:32:17.961Z,1.77
2022-10-15T22:34:23.384Z,3.28
2022-10-15T22:36:32.495Z,2.75
2022-10-15T22:38:37.226Z,1.77
2022-10-15T22:40:42.006Z,1.77
2022-10-15T22:42:48.574Z,4.07
2022-10-15T22:44:53.330Z,2.40
2022-10-15T22:47:00.953Z,3.10
2022-10-15T22:49:06.412Z,2.42
2022-10-15T22:51:14.069Z,1.90
2022-10-15T22:53:18.830Z,2.33
2022-10-15T22:55:23.559Z,4.80
2022-10-15T22:57:31.344Z,1.88
2022-10-15T22:59:36.243Z,2.58
2022-10-15T23:01:41.303Z,3.00
2022-10-15T23:05:55.210Z,2.20
2022-10-15T23:08:00.071Z,2.42
2022-10-15T23:10:04.880Z,2.13
2022-10-15T23:12:09.803Z,1.92
2022-10-15T23:14:16.735Z,2.63
2022-10-15T23:16:23.116Z,3.95
2022-10-15T23:18:27.824Z,2.70
2022-10-15T23:20:37.119Z,2.03
2022-10-15T23:22:42.132Z,3.60
2022-10-15T23:24:46.905Z,2.35
2022-10-15T23:26:51.906Z,3.05
2022-10-15T23:31:02.477Z,1.27
2022-10-15T23:33:07.452Z,2.80
2022-10-15T23:35:13.920Z,2.30
2022-10-15T23:37:21.282Z,2.22
2022-10-15T23:39:28.763Z,2.78
2022-10-15T23:41:34.032Z,1.95
2022-10-15T23:45:44.174Z,2.30
2022-10-15T23:47:48.992Z,2.83
2022-10-15T23:49:53.783Z,2.55
2022-10-15T23:51:58.570Z,4.95
2022-10-15T23:54:07.607Z,2.63
2022-10-15T23:56:12.370Z,9.05
2022-10-15T23:58:17.158Z,2.17
